Free Trial

Nuveen New York Quality Municipal Income Fund (NAN) Institutional Ownership

Nuveen New York Quality Municipal Income Fund logo
$11.46 -0.02 (-0.13%)
Closing price 05/7/2026 03:58 PM Eastern
Extended Trading
$11.46 0.00 (-0.04%)
As of 05/7/2026 04:10 PM Eastern
Extended trading is trading that happens on electronic markets outside of regular trading hours. This is a fair market value extended hours price provided by Massive. Learn more.

Institutional Ownership Changes (13F Filings) for Nuveen New York Quality Municipal Income Fund (NYSE:NAN)

Number of
Institutional Buyers
(last 12 months)
27
Total
Institutional Inflows
(last 12 months)
$13.66M
Number of
Institutional Sellers
(last 12 months)
14
Total
Institutional Outflows
(last 12 months)
$2.32M
Get NAN Insider Trade Alerts

Want to know when executives and insiders are buying or selling Nuveen New York Quality Municipal Income Fund stock? Sign up for InsiderTrades.com's daily newsletter to get the latest insider transactions delivered to your inbox daily.

SMS is currently available in Australia, Belgium, Canada, France, Germany, Ireland, Italy, New Zealand, the Netherlands, Singapore, South Africa, Spain, Switzerland, the United Kingdom, and the United States. By entering your phone number and clicking the sign-up button, you agree to receive periodic text messages from MarketBeat at the phone number you submitted, including texts that may be sent using an automatic telephone dialing system. Message and data rates may apply. Message frequency will vary. Messages will consist of stock alerts, news stories, and partner advertisements/offers. Consent is not a condition of the purchase of any goods or services. Text HELP for help/customer support. Unsubscribe at any time by replying "STOP" to any text message that you receive from MarketBeat or by visiting our mailing preferences page. Read our full terms of service and privacy policy.
Skip Chart & View Institutional Buying and Selling Data

NAN Institutional Buying and Selling by Quarter

Nuveen New York Quality Municipal Income Fund Major Shareholders & Ownership History

Reporting DateMajor Shareholder NameShares HeldMarket Value% of PortfolioQuarterly Change in SharesOwnership in CompanyDetails
4/27/2026 PFG Investments LLC37,434$417K0.0%+13.0%0.000%
4/22/2026 Janney Montgomery Scott LLC45,296$505K0.0%+10.3%0.000%
4/20/2026 Breakwater Capital Group12,579$140K0.0%-19.2%0.000%
2/18/2026NewEdge Advisors LLC11,001$124K0.0%N/A0.000%
2/17/2026&PARTNERS13,094$147K0.0%N/A0.000%
2/17/2026Royal Bank of Canada129,692$1.46M0.0%-3.8%0.000%
2/13/2026Stifel Financial Corp11,987$135K0.0%-7.7%0.000%
2/13/2026Wells Fargo & Company MN302,532$3.41M0.0%-5.0%0.000%
2/12/2026Jane Street Group LLC13,037$147K0.0%N/A0.000%
2/12/2026HRT Financial LP13,772$155K0.0%N/A0.000%
2/12/2026 Commonwealth Equity Services LLC54,348$612K0.0%-23.5%0.000%
2/12/2026Steward Partners Investment Advisory LLC10,000$113K0.0%+11.1%0.000%
2/11/2026 Janney Montgomery Scott LLC41,061$462K0.0%+7.8%0.000%
2/11/2026 LPL Financial LLC36,634$413K0.0%+7.3%0.000%
2/10/2026Avestar Capital LLC31,084$350K0.0%-16.2%0.000%
2/6/2026 HighTower Advisors LLC196,236$2.21M0.0%+0.7%0.000%
2/3/2026 Indivisible Partners316,078$3.56M0.4%N/A0.000%
1/30/2026GC Wealth Management RIA LLC55,058$620K0.0%N/A0.000%
1/26/2026 PFG Investments LLC33,118$373K0.0%+16.1%0.000%
1/21/2026 South Shore Capital Advisors17,335$195K0.1%N/A0.000%
1/20/2026Westwood Wealth Management63,700$717K0.5%N/A0.000%
1/14/2026Hennion & Walsh Asset Management Inc.320,552$3.61M0.1%+83.8%0.000%
1/8/2026 Wealth Enhancement Advisory Services LLC38,618$436K0.0%+54.8%0.000%
11/17/2025Bank of America Corp DE504,065$5.76M0.0%-3.3%0.000%
11/17/2025Ameriprise Financial Inc.12,950$148K0.0%-6.5%0.000%
11/14/2025Olde Wealth Management LLC31,727$367K0.1%N/A0.000%
11/12/2025Kingsview Wealth Management LLC13,450$154K0.0%N/A0.000%
11/7/2025Avestar Capital LLC37,084$427K0.0%+9.4%0.000%
11/7/2025 HighTower Advisors LLC194,813$2.23M0.0%-0.5%0.000%
11/6/2025 Breakwater Capital Group15,093$173K0.0%-79.2%0.000%
11/5/2025 Envestnet Asset Management Inc.43,503$497K0.0%+4.9%0.000%
10/31/2025 PFG Investments LLC28,528$326K0.0%+28.6%0.000%
10/29/2025 Wealth Enhancement Advisory Services LLC24,953$285K0.0%+67.1%0.000%
10/27/2025Ashton Thomas Securities LLC176,556$2.02M0.3%N/A0.000%
10/22/2025Hennion & Walsh Asset Management Inc.174,370$1.99M0.1%+89.6%0.000%
10/20/2025 OMNI 360 Wealth Inc.28,469$325K0.2%+4.4%0.000%
10/17/2025 J. L. Bainbridge & Co. Inc.10,192$116K0.0%N/A0.000%
8/15/2025Bank of America Corp DE521,432$5.95M0.0%-2.0%0.000%
8/14/2025Raymond James Financial Inc.67,333$768K0.0%-2.0%0.000%
8/13/2025Avestar Capital LLC33,884$389K0.0%+59.2%0.000%
8/13/2025Cresset Asset Management LLC21,893$251K0.0%N/A0.000%
8/13/2025Guggenheim Capital LLC714,149$8.15M0.1%+4.9%0.000%
8/12/2025Horizon Kinetics Asset Management LLC39,769$454K0.0%+4.3%0.000%
8/12/2025Lionshead Wealth Management LLC63,700$731K0.7%N/A0.000%
8/1/2025 Envestnet Asset Management Inc.41,459$473K0.0%+36.8%0.000%
7/24/2025 Mackay Shields LLC53,530$611K0.0%-24.1%0.000%
7/23/2025 Kingswood Wealth Advisors LLC13,000$148K0.0%-75.0%0.000%
7/18/2025 PFG Investments LLC22,178$253K0.0%+8.1%0.000%
7/17/2025 Janney Montgomery Scott LLC38,345$438K0.0%-4.3%0.000%
7/10/2025 Wealth Enhancement Advisory Services LLC14,930$171K0.0%+41.3%0.000%
7/9/2025 Breakwater Capital Group72,455$827K0.1%+67.8%0.000%
7/7/2025 OMNI 360 Wealth Inc.27,267$311K0.2%+12.1%0.000%
5/15/2025Tortoise Investment Management LLC4,935$56K0.0%-67.3%0.000%
5/13/2025HighTower Advisors LLC195,979$2.23M0.0%+0.5%0.000%
4/30/2025OMNI 360 Wealth Inc.24,328$277K0.2%-10.9%0.000%
4/21/2025Kingswood Wealth Advisors LLC52,000$594K0.0%+100.0%0.000%
4/17/2025Grove Bank & Trust3,000$34K0.0%N/A0.000%
4/17/2025Janney Montgomery Scott LLC40,075$456K0.0%-2.6%0.000%
4/17/2025Atlas Private Wealth Advisors14,220$162K0.0%N/A0.000%
4/16/2025Opal Wealth Advisors LLC12,008$137K0.0%+13.5%0.000%
4/16/2025Wealth Enhancement Advisory Services LLC10,569$120K0.0%N/A0.000%
4/10/2025Breakwater Capital Group43,174$491K0.1%N/A0.000%
4/10/2025Hennion & Walsh Asset Management Inc.68,816$783K0.0%-52.0%0.000%
2/17/2025Bank of America Corp DE786,198$8.96M0.0%+7.3%0.000%
2/17/2025Ameriprise Financial Inc.14,510$165K0.0%-12.1%0.000%
2/13/2025Guggenheim Capital LLC665,090$7.58M0.1%+6.7%0.000%
2/13/2025Broyhill Asset Management10,000$114K0.1%N/A0.000%
2/13/2025Raymond James Financial Inc.68,466$781K0.0%N/A0.000%
2/13/2025Envestnet Asset Management Inc.17,839$203K0.0%+17.2%0.000%
2/13/2025Wells Fargo & Company MN190,875$2.18M0.0%-1.4%0.000%
2/11/2025LPL Financial LLC14,674$167K0.0%N/A0.000%
2/10/2025Commonwealth Equity Services LLC53,997$616K0.0%-3.7%0.000%
2/7/2025HighTower Advisors LLC195,071$2.22M0.0%+0.7%0.000%
2/7/2025Tortoise Investment Management LLC15,078$172K0.0%-72.5%0.000%
2/6/2025Raymond James Financial Inc.68,466$781K0.0%N/A0.000%
2/3/2025Transcend Capital Advisors LLC246,398$2.81M0.2%+2,364.0%0.000%
1/31/2025Robinson Capital Management LLC102,408$1.17M0.5%-32.8%0.000%
1/31/2025Atria Wealth Solutions Inc.17,049$194K0.0%N/A0.000%
1/28/2025Stephens Inc. AR14,226$162K0.0%N/A0.000%
1/28/2025Seelaus Asset Management LLC11,306$129K0.1%N/A0.000%
1/23/2025Ibex Wealth Advisors14,908$170K0.0%N/A0.000%
1/22/2025Kingswood Wealth Advisors LLC26,000$296K0.0%N/A0.000%
1/22/2025PFG Investments LLC20,482$233K0.0%+66.3%0.000%
1/17/2025Janney Montgomery Scott LLC41,144$469K0.0%+10.5%0.000%
1/15/2025Hennion & Walsh Asset Management Inc.143,291$1.63M0.1%-61.7%0.000%
11/15/2024Stifel Financial Corp12,462$147K0.0%+18.8%0.000%
11/15/2024Integrated Wealth Concepts LLC11,405$134K0.0%-45.8%0.000%
11/15/2024HighTower Advisors LLC193,671$2.28M0.0%+1.1%0.000%
11/13/2024Horizon Kinetics Asset Management LLC38,119$449K0.0%+82.9%0.000%
10/24/2024PFG Investments LLC12,315$145K0.0%N/A0.000%
10/23/2024Hennion & Walsh Asset Management Inc.374,373$4.41M0.2%-25.9%0.000%
8/15/2024Logan Stone Capital LLC417,251$4.69M1.2%-27.6%0.000%
8/2/2024Tortoise Investment Management LLC79,455$894K0.1%-9.1%0.000%
7/31/2024Commonwealth Equity Services LLC59,624$671K0.0%+8.1%0.000%
7/20/2024Hennion & Walsh Asset Management Inc.505,210$5.68M0.3%-0.6%0.000%
7/19/2024OMNI 360 Wealth Inc.27,064$304K0.2%+12.6%0.000%
7/12/2024Opal Wealth Advisors LLC10,900$123K0.0%N/A0.000%
5/14/2024Robinson Capital Management LLC101,483$1.08M0.4%+13.9%0.000%
5/14/2024Karpus Management Inc.957,236$10.48M0.3%+0.6%0.000%
5/1/2024Janney Montgomery Scott LLC37,872$415K0.0%+2.6%0.000%


NAN Institutional Ownership - Frequently Asked Questions

Who are the largest shareholders of NAN shares?

During the previous two years, 50 institutional investors and hedge funds held shares of Nuveen New York Quality Municipal Income Fund. The most heavily invested institutionals were Karpus Management Inc. ($10.48M), Guggenheim Capital LLC ($8.15M), Bank of America Corp DE ($5.76M), Logan Stone Capital LLC ($4.69M), Hennion & Walsh Asset Management Inc. ($3.61M), Indivisible Partners ($3.56M), and Wells Fargo & Company MN ($3.41M).Learn more on Nuveen New York Quality Municipal Income Fund's institutional investors.

Which institutional investors have been buying Nuveen New York Quality Municipal Income Fund's stock?

Of the 43 institutional investors that purchased Nuveen New York Quality Municipal Income Fund's stock in the last 24 months, the following investors and hedge funds have bought the highest volume of shares: Indivisible Partners ($316.08K), Transcend Capital Advisors LLC ($236.40K), Hennion & Walsh Asset Management Inc. ($228.60K), Ashton Thomas Securities LLC ($176.56K), Raymond James Financial Inc. ($136.93K), Guggenheim Capital LLC ($75.42K), and Breakwater Capital Group ($72.46K).

How much institutional buying is happening at Nuveen New York Quality Municipal Income Fund?

Institutional investors have bought a total of 1,204,899 shares in the last 24 months. This purchase volume represents approximately $13.66M in transactions.

Which of Nuveen New York Quality Municipal Income Fund's major shareholders have been selling company stock?

Of the 14 institutional investors that sold Nuveen New York Quality Municipal Income Fund's stock in the last 24 months, the following investors and hedge funds have sold the highest volume of shares: Breakwater Capital Group ($60.35K), Kingswood Wealth Advisors LLC ($39K), Bank of America Corp DE ($27.90K), Mackay Shields LLC ($16.99K), Commonwealth Equity Services LLC ($16.70K), Wells Fargo & Company MN ($15.95K), and Tortoise Investment Management LLC ($10.14K).

How much institutional selling is happening at Nuveen New York Quality Municipal Income Fund?

Institutional investors have sold a total of 204,151 shares in the last 24 months. This volume of shares sold represents approximately $2.32M in transactions.



This page (NYSE:NAN) was last updated on 5/8/2026 by MarketBeat.com Staff.
From Our Partners